Time;durP1;ratioP1;P1;durP2;ratioP2;P2;SDS_P1;SDS_P2;PMS_P1;PMS_P2;Temp;Humidity;BMP_temperature;BMP_pressure;BME280_temperature;BME280_humidity;BME280_pressure;Samples;Min_cycle;Max_cycle;Signal;HPM_P1;HPM_P2
2022/01/23 00:00:45;;;;;;;17.67;11.63;;;;;;;;;;5028875;28;20065;-72
2022/01/23 00:03:17;;;;;;;26.95;12.25;;;;;;;;;;5012218;28;20068;-72
2022/01/23 00:05:47;;;;;;;30.05;11.50;;;;;;;;;;5012833;28;20144;-69
2022/01/23 00:08:16;;;;;;;20.40;11.70;;;;;;;;;;5027875;28;20064;-67
2022/01/23 00:10:43;;;;;;;22.20;11.65;;;;;;;;;;5023346;28;20422;-69
2022/01/23 00:13:25;;;;;;;18.42;11.13;;;;;;;;;;5025202;28;20059;-73
2022/01/23 00:18:38;;;;;;;24.02;11.77;;;;;;;;;;5025973;28;20048;-68
2022/01/23 00:21:04;;;;;;;26.95;12.02;;;;;;;;;;5020207;28;20178;-69
2022/01/23 00:31:36;;;;;;;;;;;;;;;;;;5014076;28;20067;-65
2022/01/23 00:34:03;;;;;;;20.80;12.52;;;;;;;;;;5026920;28;20643;-73
2022/01/23 00:36:30;;;;;;;20.92;11.63;;;;;;;;;;5025182;28;20359;-68
2022/01/23 00:38:57;;;;;;;20.02;11.70;;;;;;;;;;5015724;28;20038;-75
2022/01/23 00:41:23;;;;;;;22.92;11.88;;;;;;;;;;5032512;28;20057;-65
2022/01/23 00:43:51;;;;;;;20.60;11.55;;;;;;;;;;5030356;28;20183;-66
2022/01/23 00:51:29;;;;;;;21.75;12.18;;;;;;;;;;5027099;28;20053;-73
2022/01/23 00:53:57;;;;;;;20.05;11.45;;;;;;;;;;5023979;28;20056;-66
2022/01/23 00:56:24;;;;;;;19.98;11.80;;;;;;;;;;5017617;28;20564;-72
2022/01/23 00:58:51;;;;;;;17.00;11.38;;;;;;;;;;5032173;28;20738;-64
2022/01/23 01:01:17;;;;;;;24.58;11.68;;;;;;;;;;5032348;28;20044;-67
2022/01/23 01:03:44;;;;;;;17.50;10.60;;;;;;;;;;5012592;28;20069;-70
2022/01/23 01:06:11;;;;;;;18.33;11.02;;;;;;;;;;4990180;28;20049;-75
2022/01/23 01:08:37;;;;;;;18.05;10.10;;;;;;;;;;5009412;28;20044;-65
2022/01/23 01:31:09;;;;;;;19.33;9.98;;;;;;;;;;4956375;28;20133;-65
2022/01/23 01:38:16;;;;;;;19.52;10.02;;;;;;;;;;4936976;28;20070;-65
2022/01/23 01:40:44;;;;;;;15.65;9.52;;;;;;;;;;4938717;28;20732;-65
2022/01/23 01:43:10;;;;;;;20.98;10.00;;;;;;;;;;4937444;28;20055;-64
2022/01/23 01:45:38;;;;;;;14.27;9.25;;;;;;;;;;4920494;29;20048;-66
2022/01/23 01:48:05;;;;;;;16.20;9.57;;;;;;;;;;4920744;29;20087;-68
2022/01/23 01:50:33;;;;;;;20.33;10.45;;;;;;;;;;4984107;28;20505;-72
2022/01/23 01:53:00;;;;;;;16.38;9.68;;;;;;;;;;4996718;28;20053;-68
2022/01/23 01:55:29;;;;;;;14.40;9.93;;;;;;;;;;4989903;28;20081;-66
2022/01/23 01:58:02;;;;;;;17.00;9.45;;;;;;;;;;5013943;28;20053;-73
2022/01/23 02:08:27;;;;;;;16.00;9.25;;;;;;;;;;5011387;28;20065;-63
2022/01/23 02:11:01;;;;;;;16.88;9.88;;;;;;;;;;5015558;28;20155;-69
2022/01/23 02:13:44;;;;;;;18.08;9.80;;;;;;;;;;4997159;28;20115;-69
2022/01/23 02:24:48;;;;;;;17.65;10.07;;;;;;;;;;4996522;28;20075;-64
2022/01/23 03:00:12;;;;;;;17.50;9.60;;;;;;;;;;4949728;28;20070;-69
2022/01/23 03:02:44;;;;;;;14.60;8.98;;;;;;;;;;4962182;28;20053;-68
2022/01/23 03:05:24;;;;;;;15.18;9.20;;;;;;;;;;4961631;28;20051;-70
2022/01/23 03:08:06;;;;;;;16.15;9.43;;;;;;;;;;4966643;28;20073;-65
2022/01/23 03:29:03;;;;;;;12.77;9.23;;;;;;;;;;5008573;28;20059;-65
2022/01/23 03:34:18;;;;;;;17.73;8.75;;;;;;;;;;5018474;28;20064;-62
2022/01/23 03:36:44;;;;;;;15.88;9.77;;;;;;;;;;5018083;28;20118;-63
2022/01/23 03:39:11;;;;;;;17.23;8.30;;;;;;;;;;5017602;28;20132;-68
2022/01/23 03:41:40;;;;;;;16.52;8.60;;;;;;;;;;5000867;28;20048;-66
2022/01/23 03:44:09;;;;;;;14.77;9.10;;;;;;;;;;5007167;28;20163;-65
2022/01/23 03:49:32;;;;;;;11.50;8.90;;;;;;;;;;5018431;28;20089;-65
2022/01/23 03:52:09;;;;;;;13.82;8.63;;;;;;;;;;4993313;28;20076;-63
2022/01/23 03:54:37;;;;;;;13.98;9.13;;;;;;;;;;5018296;28;20041;-66
2022/01/23 03:57:04;;;;;;;15.65;8.95;;;;;;;;;;4998791;28;20129;-70
2022/01/23 03:59:32;;;;;;;14.95;8.38;;;;;;;;;;5000495;28;20057;-71
2022/01/23 04:01:59;;;;;;;13.02;8.25;;;;;;;;;;5020044;28;20046;-72
2022/01/23 04:06:57;;;;;;;14.82;9.18;;;;;;;;;;5017557;28;20057;-69
2022/01/23 04:09:25;;;;;;;12.43;8.32;;;;;;;;;;5015922;28;20148;-65
2022/01/23 04:11:52;;;;;;;15.20;8.75;;;;;;;;;;5017829;28;20139;-62
2022/01/23 04:14:20;;;;;;;15.88;8.75;;;;;;;;;;5016135;28;20128;-66
2022/01/23 04:33:12;;;;;;;14.20;8.77;;;;;;;;;;5021526;28;19925;-70
2022/01/23 05:00:08;;;;;;;13.73;8.82;;;;;;;;;;5019664;28;20482;-68
2022/01/23 05:05:08;;;;;;;12.57;8.18;;;;;;;;;;5035959;28;20486;-69
2022/01/23 05:07:34;;;;;;;17.38;8.40;;;;;;;;;;5018251;28;20052;-70
2022/01/23 05:10:00;;;;;;;10.65;8.23;;;;;;;;;;5009888;28;20652;-67
2022/01/23 05:12:31;;;;;;;9.98;7.80;;;;;;;;;;5027785;28;20064;-65
2022/01/23 05:14:57;;;;;;;14.27;8.85;;;;;;;;;;5037076;28;20115;-67
2022/01/23 05:17:23;;;;;;;12.57;8.13;;;;;;;;;;5037044;28;20523;-69
2022/01/23 05:19:49;;;;;;;13.05;8.55;;;;;;;;;;5030478;28;20052;-65
2022/01/23 05:24:52;;;;;;;14.95;8.50;;;;;;;;;;5014768;28;20083;-62
2022/01/23 05:27:22;;;;;;;15.50;8.52;;;;;;;;;;5033017;28;20853;-61
2022/01/23 05:29:49;;;;;;;14.38;8.57;;;;;;;;;;5036843;28;20058;-69
2022/01/23 05:32:15;;;;;;;11.63;8.20;;;;;;;;;;5014084;28;20765;-67
2022/01/23 05:34:44;;;;;;;12.57;8.18;;;;;;;;;;5034632;28;20440;-63
2022/01/23 05:37:10;;;;;;;13.13;7.97;;;;;;;;;;5031732;28;20503;-66
2022/01/23 05:39:36;;;;;;;12.73;8.48;;;;;;;;;;5032403;28;20037;-64
2022/01/23 05:42:07;;;;;;;13.82;8.05;;;;;;;;;;5013608;28;20122;-69
2022/01/23 05:44:36;;;;;;;14.90;8.00;;;;;;;;;;5036192;28;20045;-71
2022/01/23 05:47:06;;;;;;;12.25;8.30;;;;;;;;;;5028314;28;20041;-64
2022/01/23 05:49:33;;;;;;;12.63;8.15;;;;;;;;;;5014616;28;20142;-72
2022/01/23 05:51:59;;;;;;;12.07;7.88;;;;;;;;;;5017964;28;20080;-65
2022/01/23 05:54:26;;;;;;;15.98;8.73;;;;;;;;;;5009649;28;20134;-69
2022/01/23 05:56:52;;;;;;;12.93;8.07;;;;;;;;;;5015885;28;20115;-63
2022/01/23 05:59:21;;;;;;;12.93;8.50;;;;;;;;;;5033899;28;20060;-65
2022/01/23 06:01:51;;;;;;;12.10;7.72;;;;;;;;;;5036153;28;20049;-62
2022/01/23 06:04:19;;;;;;;12.05;7.68;;;;;;;;;;5005125;28;20057;-66
2022/01/23 06:06:48;;;;;;;12.27;7.55;;;;;;;;;;5035847;28;20135;-65
2022/01/23 06:09:16;;;;;;;13.48;8.63;;;;;;;;;;5032344;28;20587;-63
2022/01/23 06:11:42;;;;;;;17.75;8.82;;;;;;;;;;5035467;28;20075;-62
2022/01/23 06:14:09;;;;;;;11.20;8.00;;;;;;;;;;5016855;28;20490;-67
2022/01/23 06:16:36;;;;;;;13.95;7.75;;;;;;;;;;5017766;28;20128;-68
2022/01/23 06:19:03;;;;;;;12.15;7.88;;;;;;;;;;4994614;28;20041;-66
2022/01/23 06:21:29;;;;;;;12.77;7.78;;;;;;;;;;5032254;28;20061;-67
2022/01/23 06:24:21;;;;;;;13.40;8.35;;;;;;;;;;5035494;28;20136;-64
2022/01/23 06:26:50;;;;;;;14.05;7.88;;;;;;;;;;5033407;28;20049;-69
2022/01/23 06:29:18;;;;;;;12.85;7.63;;;;;;;;;;5009684;28;20069;-62
2022/01/23 06:31:48;;;;;;;13.38;8.38;;;;;;;;;;5030185;28;20056;-71
2022/01/23 06:34:17;;;;;;;13.20;7.55;;;;;;;;;;5016312;28;20057;-67
2022/01/23 06:36:44;;;;;;;14.82;7.88;;;;;;;;;;5015676;28;20048;-64
2022/01/23 06:39:13;;;;;;;12.30;7.03;;;;;;;;;;5030596;28;20048;-67
2022/01/23 06:41:40;;;;;;;12.15;7.97;;;;;;;;;;5013581;28;20099;-69
2022/01/23 06:44:07;;;;;;;12.77;8.18;;;;;;;;;;5014555;28;20391;-66
2022/01/23 06:46:33;;;;;;;13.20;7.70;;;;;;;;;;5036046;28;20112;-73
2022/01/23 06:49:00;;;;;;;12.48;8.20;;;;;;;;;;5032764;28;20044;-65
2022/01/23 06:51:27;;;;;;;12.32;7.75;;;;;;;;;;5017037;28;20069;-71
2022/01/23 06:53:53;;;;;;;12.90;8.15;;;;;;;;;;5000457;28;20049;-64
2022/01/23 06:56:19;;;;;;;9.80;7.28;;;;;;;;;;5017335;28;20139;-63
2022/01/23 06:58:45;;;;;;;12.20;7.68;;;;;;;;;;5033971;28;20430;-64
2022/01/23 07:01:11;;;;;;;10.57;7.80;;;;;;;;;;5014046;28;20123;-61
2022/01/23 07:03:38;;;;;;;13.57;8.00;;;;;;;;;;5024115;28;20057;-69
2022/01/23 07:06:05;;;;;;;11.50;7.90;;;;;;;;;;5033482;28;20041;-68
2022/01/23 07:08:32;;;;;;;11.18;7.97;;;;;;;;;;5012162;28;20501;-66
2022/01/23 07:10:58;;;;;;;12.02;7.90;;;;;;;;;;5036584;28;20052;-68
2022/01/23 07:13:24;;;;;;;12.82;7.80;;;;;;;;;;5028597;28;20057;-64
2022/01/23 07:15:50;;;;;;;10.85;7.63;;;;;;;;;;5012510;28;20048;-67
2022/01/23 07:18:18;;;;;;;11.90;7.97;;;;;;;;;;5029334;28;20715;-67
2022/01/23 07:20:45;;;;;;;13.30;8.13;;;;;;;;;;5000254;28;20486;-63
2022/01/23 07:23:13;;;;;;;11.45;7.57;;;;;;;;;;5031668;28;20045;-62
2022/01/23 07:25:41;;;;;;;13.27;8.05;;;;;;;;;;5033183;28;20057;-64
2022/01/23 07:28:13;;;;;;;11.93;7.93;;;;;;;;;;5021693;28;20137;-71
2022/01/23 07:30:48;;;;;;;11.13;7.50;;;;;;;;;;5016366;28;20075;-69
2022/01/23 07:33:15;;;;;;;10.50;7.45;;;;;;;;;;5032835;28;20505;-70
2022/01/23 07:35:41;;;;;;;11.40;7.50;;;;;;;;;;5034238;28;20041;-62
2022/01/23 07:38:09;;;;;;;11.55;7.55;;;;;;;;;;5014354;28;20119;-71
2022/01/23 07:40:36;;;;;;;13.20;8.18;;;;;;;;;;5021771;28;21893;-69
2022/01/23 07:43:02;;;;;;;13.93;8.07;;;;;;;;;;5020218;28;20048;-67
2022/01/23 07:45:29;;;;;;;13.38;8.20;;;;;;;;;;5034977;28;20045;-67
2022/01/23 07:47:55;;;;;;;13.10;8.10;;;;;;;;;;5009390;28;20453;-64
2022/01/23 07:50:21;;;;;;;12.57;8.18;;;;;;;;;;5014582;28;21433;-67
2022/01/23 07:52:48;;;;;;;11.52;7.70;;;;;;;;;;5034489;28;20053;-62
2022/01/23 07:55:15;;;;;;;12.40;8.20;;;;;;;;;;5033062;28;20134;-65
2022/01/23 07:57:45;;;;;;;11.65;8.02;;;;;;;;;;5029284;28;20044;-63
2022/01/23 08:00:13;;;;;;;9.13;6.68;;;;;;;;;;5014517;28;20052;-71
2022/01/23 08:02:41;;;;;;;19.70;7.78;;;;;;;;;;5000221;28;20053;-70
2022/01/23 08:05:09;;;;;;;14.48;8.45;;;;;;;;;;5035403;28;20052;-63
2022/01/23 08:07:36;;;;;;;10.55;8.05;;;;;;;;;;5030275;28;20041;-68
2022/01/23 08:10:06;;;;;;;18.67;8.63;;;;;;;;;;5011937;28;20067;-67
2022/01/23 08:12:33;;;;;;;12.60;7.93;;;;;;;;;;5009484;28;20418;-66
2022/01/23 08:15:00;;;;;;;11.43;7.80;;;;;;;;;;5023747;28;20053;-67
2022/01/23 08:17:26;;;;;;;12.75;8.05;;;;;;;;;;5029684;28;20053;-67
2022/01/23 08:19:55;;;;;;;11.45;7.40;;;;;;;;;;5014192;28;20892;-64
2022/01/23 08:22:24;;;;;;;11.52;8.48;;;;;;;;;;5032061;28;20049;-73
2022/01/23 08:24:52;;;;;;;13.63;8.20;;;;;;;;;;5033873;28;20045;-65
2022/01/23 08:27:19;;;;;;;13.18;8.70;;;;;;;;;;5022097;28;20057;-67
2022/01/23 08:29:46;;;;;;;14.63;7.93;;;;;;;;;;5046659;28;20060;-71
2022/01/23 08:32:12;;;;;;;13.13;7.93;;;;;;;;;;5030853;28;20103;-71
2022/01/23 08:34:39;;;;;;;16.02;8.68;;;;;;;;;;5032992;28;20044;-72
2022/01/23 08:37:07;;;;;;;13.02;8.23;;;;;;;;;;5012425;28;20091;-68
2022/01/23 08:39:36;;;;;;;12.32;7.63;;;;;;;;;;5011237;28;20605;-67
2022/01/23 08:42:17;;;;;;;21.65;10.95;;;;;;;;;;5015049;28;20053;-71
2022/01/23 08:44:45;;;;;;;29.40;11.40;;;;;;;;;;5033287;28;20443;-70
2022/01/23 08:47:12;;;;;;;16.45;8.93;;;;;;;;;;5012755;28;20045;-70
2022/01/23 08:49:45;;;;;;;15.27;8.93;;;;;;;;;;5032125;28;20142;-72
2022/01/23 08:52:19;;;;;;;13.13;8.70;;;;;;;;;;5015734;28;20041;-70
2022/01/23 08:54:49;;;;;;;14.68;8.15;;;;;;;;;;5010877;28;20052;-68
2022/01/23 08:57:17;;;;;;;14.75;8.40;;;;;;;;;;5016194;28;20053;-68
2022/01/23 08:59:43;;;;;;;12.98;8.25;;;;;;;;;;5014066;28;20056;-68
2022/01/23 09:02:10;;;;;;;12.63;7.80;;;;;;;;;;5029556;28;20486;-71
2022/01/23 09:04:37;;;;;;;14.95;8.38;;;;;;;;;;5031786;28;20485;-70
2022/01/23 09:07:03;;;;;;;14.98;8.13;;;;;;;;;;5033361;28;20359;-71
2022/01/23 09:09:32;;;;;;;12.48;7.85;;;;;;;;;;5033022;28;20064;-73
2022/01/23 09:12:06;;;;;;;13.85;7.97;;;;;;;;;;5030051;28;20737;-72
2022/01/23 09:14:33;;;;;;;18.38;8.30;;;;;;;;;;5013121;28;20058;-70
2022/01/23 09:17:02;;;;;;;11.32;7.93;;;;;;;;;;5031164;28;20057;-71
2022/01/23 09:19:28;;;;;;;15.35;8.18;;;;;;;;;;5032003;28;20049;-71
2022/01/23 09:21:56;;;;;;;13.68;8.10;;;;;;;;;;5013026;28;20057;-73
2022/01/23 09:24:25;;;;;;;16.23;8.10;;;;;;;;;;5014577;28;20057;-72
2022/01/23 09:26:54;;;;;;;14.75;8.30;;;;;;;;;;5014334;28;20152;-67
2022/01/23 09:29:32;;;;;;;16.08;8.45;;;;;;;;;;5030792;28;20826;-73
2022/01/23 09:31:59;;;;;;;17.20;8.20;;;;;;;;;;5028114;28;20058;-68
2022/01/23 09:34:28;;;;;;;15.15;8.80;;;;;;;;;;5009361;28;20057;-73
2022/01/23 09:36:56;;;;;;;12.75;8.20;;;;;;;;;;5024120;28;21426;-70
2022/01/23 09:39:24;;;;;;;12.15;8.07;;;;;;;;;;5006662;28;21405;-70
2022/01/23 09:42:04;;;;;;;14.40;8.45;;;;;;;;;;5007665;28;20049;-70
2022/01/23 09:44:41;;;;;;;13.68;8.50;;;;;;;;;;5021825;28;20471;-69
2022/01/23 09:47:11;;;;;;;13.10;8.48;;;;;;;;;;5026241;28;20127;-73
2022/01/23 09:49:39;;;;;;;15.25;8.38;;;;;;;;;;5028178;28;20088;-74
2022/01/23 09:52:08;;;;;;;13.15;8.27;;;;;;;;;;5024855;28;20079;-71
2022/01/23 09:54:35;;;;;;;15.75;8.20;;;;;;;;;;5021262;28;20156;-70
2022/01/23 09:57:05;;;;;;;12.35;8.20;;;;;;;;;;5005312;28;20054;-70
2022/01/23 09:59:31;;;;;;;12.70;8.65;;;;;;;;;;5026517;28;20053;-72
2022/01/23 10:01:57;;;;;;;10.73;8.25;;;;;;;;;;5007720;28;20065;-70
2022/01/23 10:04:25;;;;;;;11.52;7.70;;;;;;;;;;5024419;28;20049;-75
2022/01/23 10:06:53;;;;;;;14.57;8.05;;;;;;;;;;5024212;28;20880;-72
2022/01/23 10:09:28;;;;;;;15.10;7.80;;;;;;;;;;5008866;28;20041;-72
2022/01/23 10:11:54;;;;;;;11.90;7.60;;;;;;;;;;5005704;28;20045;-72
2022/01/23 10:14:20;;;;;;;11.80;7.38;;;;;;;;;;5024333;28;21786;-71
2022/01/23 10:16:47;;;;;;;14.60;7.85;;;;;;;;;;5004351;28;20459;-73
2022/01/23 10:19:17;;;;;;;14.82;8.30;;;;;;;;;;5010933;28;20128;-73
2022/01/23 10:21:45;;;;;;;14.82;7.35;;;;;;;;;;5025372;28;20125;-71
2022/01/23 10:24:13;;;;;;;12.80;7.80;;;;;;;;;;5028898;28;20136;-72
2022/01/23 10:26:47;;;;;;;12.80;7.35;;;;;;;;;;5002126;28;20133;-70
2022/01/23 10:29:21;;;;;;;15.65;8.15;;;;;;;;;;5026908;28;20065;-74
2022/01/23 10:32:02;;;;;;;11.77;7.78;;;;;;;;;;5013427;28;20279;-70
2022/01/23 10:34:49;;;;;;;25.77;8.15;;;;;;;;;;4987585;28;20072;-71
2022/01/23 10:37:37;;;;;;;15.68;8.70;;;;;;;;;;5005418;28;20057;-72
2022/01/23 10:40:31;;;;;;;11.05;6.53;;;;;;;;;;4984903;28;20787;-73
2022/01/23 10:48:35;;;;;;;11.25;7.47;;;;;;;;;;5002058;28;20053;-72
2022/01/23 10:51:21;;;;;;;10.85;7.15;;;;;;;;;;5000297;28;20050;-76
2022/01/23 10:54:09;;;;;;;11.55;7.15;;;;;;;;;;5005673;28;20041;-71
2022/01/23 10:56:59;;;;;;;19.83;7.55;;;;;;;;;;4983096;28;20060;-72
2022/01/23 10:59:40;;;;;;;12.30;7.78;;;;;;;;;;5003840;28;20057;-70
2022/01/23 11:02:12;;;;;;;11.05;7.32;;;;;;;;;;5007245;28;20046;-75
2022/01/23 11:05:01;;;;;;;12.00;7.35;;;;;;;;;;4985455;28;20147;-74
2022/01/23 11:07:29;;;;;;;11.55;6.35;;;;;;;;;;4985696;28;20053;-71
2022/01/23 11:09:59;;;;;;;16.92;8.00;;;;;;;;;;4988042;28;20069;-73
2022/01/23 11:17:59;;;;;;;10.90;7.65;;;;;;;;;;4983609;28;20072;-73
2022/01/23 11:20:48;;;;;;;13.50;7.65;;;;;;;;;;4997757;28;20191;-72
2022/01/23 11:23:22;;;;;;;10.60;7.03;;;;;;;;;;4989273;28;20083;-74
2022/01/23 11:25:57;;;;;;;13.37;8.13;;;;;;;;;;5001053;28;20479;-73
2022/01/23 11:28:43;;;;;;;15.18;8.07;;;;;;;;;;5003190;28;20456;-73
2022/01/23 11:31:13;;;;;;;12.77;8.35;;;;;;;;;;4975583;28;20053;-70
2022/01/23 11:33:40;;;;;;;15.00;8.50;;;;;;;;;;4998070;28;20045;-71
2022/01/23 11:36:07;;;;;;;10.95;7.18;;;;;;;;;;5018472;28;20120;-74
2022/01/23 11:38:33;;;;;;;12.13;7.25;;;;;;;;;;5006143;28;20460;-72
2022/01/23 11:54:56;;;;;;;14.43;6.60;;;;;;;;;;5020751;28;20113;-75
2022/01/23 11:57:44;;;;;;;15.52;7.00;;;;;;;;;;5011124;28;20084;-72
2022/01/23 12:00:17;;;;;;;11.68;6.93;;;;;;;;;;4990649;28;20524;-72
2022/01/23 12:02:44;;;;;;;17.40;7.27;;;;;;;;;;5022245;28;20075;-72
2022/01/23 12:05:18;;;;;;;11.13;6.80;;;;;;;;;;5016291;28;20146;-73
2022/01/23 12:07:54;;;;;;;15.13;6.75;;;;;;;;;;5023916;28;20053;-74
2022/01/23 12:10:29;;;;;;;12.50;6.93;;;;;;;;;;5007492;28;20115;-75
2022/01/23 12:13:54;;;;;;;15.30;6.85;;;;;;;;;;5024897;28;20055;-72
2022/01/23 12:16:26;;;;;;;14.63;6.72;;;;;;;;;;5020170;28;20045;-77
2022/01/23 12:19:11;;;;;;;;;;;;;;;;;;5023364;28;20187;-74
2022/01/23 12:21:38;;;;;;;15.02;6.68;;;;;;;;;;5026512;28;19936;-72
2022/01/23 12:24:09;;;;;;;14.23;7.65;;;;;;;;;;5005953;28;20103;-73
2022/01/23 12:26:35;;;;;;;13.38;7.05;;;;;;;;;;5016411;28;20084;-74
2022/01/23 12:29:37;;;;;;;15.45;7.07;;;;;;;;;;5023310;28;20065;-73
2022/01/23 12:32:32;;;;;;;13.63;6.93;;;;;;;;;;4941268;28;20138;-73
2022/01/23 12:35:01;;;;;;;15.88;6.85;;;;;;;;;;4919344;28;20062;-73
2022/01/23 12:37:58;;;;;;;17.10;7.20;;;;;;;;;;4940411;28;20143;-74
2022/01/23 12:40:28;;;;;;;11.93;6.43;;;;;;;;;;4926740;28;20058;-73
2022/01/23 12:43:04;;;;;;;18.98;6.60;;;;;;;;;;4936563;28;20094;-73
2022/01/23 12:45:42;;;;;;;12.35;6.03;;;;;;;;;;4931846;28;20137;-73
2022/01/23 12:48:43;;;;;;;16.52;5.78;;;;;;;;;;4918069;28;20058;-71
2022/01/23 12:51:31;;;;;;;15.45;6.50;;;;;;;;;;4902480;28;20059;-74
2022/01/23 12:53:58;;;;;;;11.55;6.30;;;;;;;;;;4935561;28;20775;-74
2022/01/23 12:56:33;;;;;;;14.13;7.15;;;;;;;;;;4917219;28;20173;-77
2022/01/23 12:59:07;;;;;;;11.35;6.07;;;;;;;;;;4949988;28;20111;-76
2022/01/23 13:01:36;;;;;;;13.60;7.15;;;;;;;;;;4937079;28;20256;-74
2022/01/23 13:04:05;;;;;;;11.95;6.25;;;;;;;;;;4942065;28;20275;-75
2022/01/23 13:06:38;;;;;;;14.52;6.10;;;;;;;;;;4976840;28;20574;-73
2022/01/23 13:14:40;;;;;;;10.38;5.30;;;;;;;;;;5006304;28;20048;-74
2022/01/23 13:30:56;;;;;;;12.38;6.80;;;;;;;;;;5010238;28;20106;-72
2022/01/23 13:33:24;;;;;;;12.93;7.65;;;;;;;;;;5021530;28;20110;-75
2022/01/23 13:35:53;;;;;;;14.52;7.85;;;;;;;;;;5002622;28;20064;-75
2022/01/23 13:38:21;;;;;;;16.73;8.13;;;;;;;;;;5005773;28;20857;-72
2022/01/23 13:40:57;;;;;;;13.18;7.40;;;;;;;;;;5008802;28;20080;-72
2022/01/23 13:50:03;;;;;;;14.32;7.57;;;;;;;;;;5028270;28;20053;-74
2022/01/23 14:00:06;;;;;;;12.70;8.07;;;;;;;;;;5034158;28;20064;-73
2022/01/23 14:02:38;;;;;;;15.30;7.97;;;;;;;;;;5013317;28;20056;-74
2022/01/23 14:05:09;;;;;;;15.77;8.75;;;;;;;;;;5031287;28;20490;-76
2022/01/23 14:07:35;;;;;;;14.02;8.05;;;;;;;;;;5009791;28;20126;-75
2022/01/23 14:10:23;;;;;;;9.65;6.82;;;;;;;;;;5033091;28;20053;-75
2022/01/23 14:12:52;;;;;;;10.85;6.47;;;;;;;;;;5021668;28;20411;-76
2022/01/23 14:15:24;;;;;;;10.70;7.05;;;;;;;;;;5026580;28;20056;-74
2022/01/23 14:18:10;;;;;;;22.23;11.90;;;;;;;;;;5012500;28;20114;-74
2022/01/23 14:20:40;;;;;;;16.50;7.20;;;;;;;;;;5032660;28;20045;-75
2022/01/23 14:23:13;;;;;;;12.10;6.20;;;;;;;;;;5036294;28;20049;-74
2022/01/23 14:25:54;;;;;;;11.90;6.97;;;;;;;;;;5029931;28;20084;-73
2022/01/23 14:28:23;;;;;;;14.82;6.72;;;;;;;;;;5032548;28;20113;-75
2022/01/23 14:30:54;;;;;;;11.85;6.85;;;;;;;;;;5009375;28;20395;-74
2022/01/23 14:33:35;;;;;;;15.27;7.63;;;;;;;;;;5008964;28;20063;-73
2022/01/23 14:36:24;;;;;;;13.75;6.72;;;;;;;;;;4989460;28;20049;-71
2022/01/23 14:38:58;;;;;;;12.02;6.82;;;;;;;;;;5009597;28;20054;-73
2022/01/23 14:41:31;;;;;;;11.95;7.10;;;;;;;;;;4992033;28;20122;-73
2022/01/23 14:43:57;;;;;;;10.90;6.72;;;;;;;;;;5010204;28;20042;-73
2022/01/23 14:46:24;;;;;;;13.82;6.47;;;;;;;;;;4985328;28;20050;-72
2022/01/23 14:48:57;;;;;;;9.43;6.10;;;;;;;;;;4992774;28;20054;-74
2022/01/23 14:51:26;;;;;;;15.82;6.20;;;;;;;;;;5011197;28;20140;-74
2022/01/23 14:53:53;;;;;;;12.77;6.10;;;;;;;;;;5006142;28;20141;-75
2022/01/23 14:56:20;;;;;;;10.60;5.43;;;;;;;;;;5010157;28;20049;-75
2022/01/23 14:58:49;;;;;;;9.23;5.38;;;;;;;;;;4995228;28;20069;-75
2022/01/23 15:01:18;;;;;;;16.60;6.20;;;;;;;;;;5025685;28;20068;-74
2022/01/23 15:03:52;;;;;;;12.38;6.40;;;;;;;;;;5013317;28;20049;-73
2022/01/23 15:06:22;;;;;;;11.30;6.43;;;;;;;;;;4990620;28;20076;-74
2022/01/23 15:08:49;;;;;;;8.13;5.20;;;;;;;;;;5021839;28;20053;-74
2022/01/23 15:11:16;;;;;;;14.30;5.63;;;;;;;;;;4976366;28;20077;-72
2022/01/23 15:13:42;;;;;;;16.55;7.05;;;;;;;;;;5005594;28;20052;-72
2022/01/23 15:16:07;;;;;;;11.25;5.88;;;;;;;;;;5005589;28;20037;-72
2022/01/23 15:18:35;;;;;;;10.40;6.00;;;;;;;;;;5006174;28;21298;-72
2022/01/23 15:21:01;;;;;;;12.80;6.25;;;;;;;;;;5008690;28;20082;-72
2022/01/23 15:23:27;;;;;;;14.20;6.25;;;;;;;;;;5010007;28;20418;-72
2022/01/23 15:25:53;;;;;;;13.27;6.60;;;;;;;;;;5010770;28;20053;-72
2022/01/23 15:28:20;;;;;;;9.27;5.80;;;;;;;;;;4984643;28;20049;-73
2022/01/23 15:30:49;;;;;;;12.93;6.45;;;;;;;;;;4989730;28;20053;-73
2022/01/23 15:33:15;;;;;;;13.45;6.15;;;;;;;;;;5019382;28;20056;-73
2022/01/23 15:35:46;;;;;;;13.85;6.60;;;;;;;;;;5010424;28;20724;-72
2022/01/23 15:38:14;;;;;;;12.35;6.30;;;;;;;;;;5023113;28;20040;-74
2022/01/23 15:40:40;;;;;;;10.57;6.18;;;;;;;;;;5004597;28;20122;-74
2022/01/23 15:43:06;;;;;;;10.55;5.97;;;;;;;;;;5023308;28;20057;-74
2022/01/23 15:45:32;;;;;;;10.63;6.68;;;;;;;;;;5020305;28;20413;-72
2022/01/23 15:47:58;;;;;;;13.02;6.30;;;;;;;;;;5004272;28;21016;-74
2022/01/23 15:50:26;;;;;;;14.80;6.50;;;;;;;;;;5019528;28;20508;-75
2022/01/23 15:52:52;;;;;;;14.63;8.00;;;;;;;;;;5021397;28;20052;-72
2022/01/23 15:55:20;;;;;;;12.55;7.28;;;;;;;;;;5002380;28;20068;-71
2022/01/23 15:57:48;;;;;;;14.80;7.90;;;;;;;;;;5005023;28;20155;-71
2022/01/23 16:00:15;;;;;;;9.82;6.43;;;;;;;;;;5022726;28;20045;-72
2022/01/23 16:02:42;;;;;;;13.23;7.35;;;;;;;;;;5006972;28;20060;-75
2022/01/23 16:05:08;;;;;;;12.30;6.85;;;;;;;;;;5006725;28;20069;-74
2022/01/23 16:07:34;;;;;;;12.57;7.38;;;;;;;;;;5006360;28;20072;-81
2022/01/23 16:10:01;;;;;;;12.82;6.97;;;;;;;;;;5024421;28;20067;-75
2022/01/23 16:12:27;;;;;;;13.98;7.95;;;;;;;;;;5019415;28;20140;-74
2022/01/23 16:14:53;;;;;;;15.93;8.23;;;;;;;;;;5019828;28;20581;-74
2022/01/23 16:17:19;;;;;;;14.50;8.20;;;;;;;;;;5005814;28;20049;-73
2022/01/23 16:19:46;;;;;;;12.80;7.70;;;;;;;;;;5007601;28;20099;-75
2022/01/23 16:22:12;;;;;;;11.93;8.70;;;;;;;;;;5005379;28;20052;-73
2022/01/23 16:24:38;;;;;;;12.50;7.80;;;;;;;;;;4999443;28;20283;-73
2022/01/23 16:27:04;;;;;;;13.88;8.43;;;;;;;;;;5021572;28;20256;-76
2022/01/23 16:29:31;;;;;;;16.40;8.40;;;;;;;;;;5011751;28;20103;-71
2022/01/23 16:31:59;;;;;;;13.10;7.70;;;;;;;;;;5002976;28;20140;-72
2022/01/23 16:34:28;;;;;;;11.52;8.05;;;;;;;;;;5020979;28;20065;-75
2022/01/23 16:36:55;;;;;;;13.88;7.90;;;;;;;;;;5003463;28;20049;-71
2022/01/23 16:39:23;;;;;;;13.30;7.72;;;;;;;;;;5020166;28;20193;-72
2022/01/23 16:41:50;;;;;;;13.55;7.97;;;;;;;;;;5006973;28;20075;-74
2022/01/23 16:44:16;;;;;;;12.93;7.68;;;;;;;;;;4998077;28;20052;-73
2022/01/23 16:46:42;;;;;;;17.88;7.68;;;;;;;;;;5000124;28;20081;-74
2022/01/23 16:49:10;;;;;;;12.32;7.30;;;;;;;;;;5026500;28;20140;-74
2022/01/23 16:51:38;;;;;;;11.32;7.60;;;;;;;;;;5006075;28;20045;-74
2022/01/23 16:54:09;;;;;;;14.25;8.35;;;;;;;;;;5023598;28;20049;-73
2022/01/23 16:56:37;;;;;;;14.93;8.05;;;;;;;;;;5026615;28;20479;-73
2022/01/23 16:59:05;;;;;;;13.30;7.80;;;;;;;;;;5026747;28;20057;-77
2022/01/23 17:01:32;;;;;;;14.55;8.55;;;;;;;;;;5009773;28;20053;-74
2022/01/23 17:03:59;;;;;;;12.05;7.68;;;;;;;;;;5021406;28;20084;-73
2022/01/23 17:06:29;;;;;;;13.18;8.05;;;;;;;;;;5007857;28;20060;-73
2022/01/23 17:08:56;;;;;;;11.68;7.70;;;;;;;;;;5027406;28;20057;-74
2022/01/23 17:11:23;;;;;;;15.57;8.95;;;;;;;;;;5030560;28;20426;-73
2022/01/23 17:13:49;;;;;;;18.52;8.20;;;;;;;;;;5025049;28;20087;-73
2022/01/23 17:16:17;;;;;;;15.00;8.50;;;;;;;;;;5024412;28;20053;-75
2022/01/23 17:18:44;;;;;;;19.88;8.43;;;;;;;;;;5026145;28;20596;-74
2022/01/23 17:21:11;;;;;;;16.30;8.30;;;;;;;;;;5024546;28;20049;-76
2022/01/23 17:23:37;;;;;;;16.05;8.95;;;;;;;;;;5003779;28;20049;-70
2022/01/23 17:26:04;;;;;;;17.95;8.80;;;;;;;;;;5004054;28;20122;-72
2022/01/23 17:28:31;;;;;;;15.82;8.77;;;;;;;;;;4997535;28;20050;-74
2022/01/23 17:30:57;;;;;;;16.65;8.80;;;;;;;;;;5008807;28;20073;-74
2022/01/23 17:33:23;;;;;;;15.50;8.73;;;;;;;;;;5027283;28;20106;-73
2022/01/23 17:35:49;;;;;;;13.88;8.88;;;;;;;;;;5005693;28;20045;-77
2022/01/23 17:38:15;;;;;;;15.73;9.45;;;;;;;;;;5025568;28;20362;-77
2022/01/23 17:40:42;;;;;;;17.25;9.05;;;;;;;;;;5026310;28;20067;-76
2022/01/23 17:43:08;;;;;;;16.73;10.00;;;;;;;;;;5028619;28;20091;-74
2022/01/23 17:45:48;;;;;;;16.75;9.35;;;;;;;;;;5021264;28;20147;-75
2022/01/23 17:51:05;;;;;;;16.50;8.85;;;;;;;;;;5023805;28;20082;-72
2022/01/23 17:53:33;;;;;;;18.08;9.48;;;;;;;;;;5026790;28;20470;-69
2022/01/23 17:55:59;;;;;;;18.13;9.38;;;;;;;;;;4997812;28;20053;-72
2022/01/23 17:58:26;;;;;;;15.68;10.02;;;;;;;;;;5006041;28;20668;-74
2022/01/23 18:00:54;;;;;;;15.48;9.80;;;;;;;;;;5026105;28;20811;-71
2022/01/23 18:03:22;;;;;;;16.42;10.40;;;;;;;;;;5026796;28;20510;-77
2022/01/23 18:05:50;;;;;;;20.42;11.38;;;;;;;;;;5023546;28;20045;-74
2022/01/23 18:08:17;;;;;;;20.02;10.38;;;;;;;;;;5024052;28;20045;-73
2022/01/23 18:10:44;;;;;;;28.83;11.43;;;;;;;;;;5022941;28;20061;-76
2022/01/23 18:13:14;;;;;;;20.73;10.10;;;;;;;;;;5031200;28;21370;-72
2022/01/23 18:15:40;;;;;;;23.25;11.63;;;;;;;;;;4990288;28;20057;-71
2022/01/23 18:18:08;;;;;;;20.15;11.35;;;;;;;;;;5028876;28;20045;-69
2022/01/23 18:20:36;;;;;;;19.10;10.13;;;;;;;;;;5026817;28;20045;-68
2022/01/23 18:23:03;;;;;;;19.00;9.88;;;;;;;;;;5024932;28;20064;-77
2022/01/23 18:25:30;;;;;;;20.60;10.25;;;;;;;;;;5005841;28;20056;-70
2022/01/23 18:27:57;;;;;;;18.80;10.43;;;;;;;;;;5022888;28;20049;-78